Nearby METAR Reports

 

ENRY - Rygge (nor-Afb), Norway
Distance from station: SØ 12km
Oppdatert: 16/12/2018 05:20
Lett snø, Overskyet
Lett snø, Overskyet
 Vind fra Ø
Vind: Ø 22 km/h
Temperatur: 1°C
Wind Chill: -4°C
Duggpunkt: -2°C
Fuktighet: 81%
Barometer: 1023 hPa
Oversikt: Lett snø
Clouds: Overskyet
Visibility: 10 km
Cloud details: Overskyet 1097 m
2018/12/16 04:20 ENRY 160420Z AUTO 10012KT 9999NDV -SN OVC036/// 01/M02 Q1023
ENTO - Torp (civ/Nor-Af, Norway
Distance from station: SV 34km
Oppdatert: 16/12/2018 05:20
Lett snø, Overskyet
Lett snø, Overskyet
 Vind fra SØ
Vind: SØ 17 km/h
Temperatur: 1°C
Wind Chill: -3°C
Duggpunkt: -1°C
Fuktighet: 87%
Barometer: 1022 hPa
Oversikt: Lett snø
Clouds: Overskyet
Visibility: 10 km
Cloud details: Overskyet 366 m
2018/12/16 04:20 ENTO 160420Z AUTO 13009KT 9999 -SN OVC012/// 01/M01 Q1022
 
ENNO - Notodden, Norway
Distance from station: V 80km
Oppdatert: 15/12/2018 16:50
NOT Current
Lett snø, Overskyet
Lett snø, Overskyet
 Vind fra varies
Vind: varies 4 km/h
Temperatur: -4°C
Duggpunkt: -5°C
Fuktighet: 93%
Barometer: 1031 hPa
Oversikt: Lett snø
Clouds: Overskyet
Visibility: 8 km
Cloud details: Overskyet 701 m
2018/12/15 15:50 ENNO 151550Z VRB02KT 8000 -SN OVC023 M04/M05 Q1031
ENGM - Oslo/Gardermoen, Norway
Distance from station: NNØ 88km
Oppdatert: 16/12/2018 05:20
Lett snø, Overskyet
Lett snø, Overskyet
 Vind fra NØ
Vind: NØ 6 km/h
Temperatur: -4°C
Duggpunkt: -5°C
Fuktighet: 93%
Barometer: 1024 hPa
Oversikt: Lett snø
Clouds: Overskyet
Visibility: 8 km
Cloud details: Overskyet 274 m
2018/12/16 04:20 ENGM 160420Z 04003KT 8000 -SN OVC009 M04/M05 Q1024
 
ESOK - Karlstad North, Sweden
Distance from station: Ø 153km
Oppdatert: 16/12/2018 05:20
Overskyet
Overskyet
 Vind fra Ø
Vind: Ø 15 km/h
Temperatur: -1°C
Wind Chill: -6°C
Duggpunkt: -3°C
Fuktighet: 86%
Barometer: 1026 hPa
Clouds: Overskyet
Visibility: 10 km
Cloud details: Overskyet 488 m
2018/12/16 04:20 ESOK 160420Z AUTO 09008KT 9999 OVC016/// M01/M03 Q1026
ESST - Torsby, Sweden
Distance from station: ØNØ 154km
Oppdatert: 16/12/2018 05:20
Lett snø, Overskyet
Lett snø, Overskyet
 Vind fra calm
Vind: Stille
Temperatur: -7°C
Duggpunkt: -8°C
Fuktighet: 93%
Barometer: 1027 hPa
Oversikt: Lett snø
Clouds: Overskyet
Visibility: 4 km
Cloud details: Overskyet 792 m
2018/12/16 04:20 ESST 160420Z AUTO 00000KT 3500 -SN OVC026/// M07/M08 Q1027
 
ESGT - Trollhattan (pvt, Sweden
Distance from station: SØ 159km
Oppdatert: 16/12/2018 05:20
Overskyet
Overskyet
 Vind fra Ø
Vind: Ø 13 km/h
Temperatur: 1°C
Wind Chill: -3°C
Duggpunkt: -1°C
Fuktighet: 87%
Barometer: 1023 hPa
Clouds: Overskyet
Visibility: 10 km
Cloud details: Overskyet 549 m
2018/12/16 04:20 ESGT 160420Z AUTO 08007KT 9999 OVC018/// 01/M01 Q1023
ESIB - Satenas (swe-Afb, Sweden
Distance from station: SØ 164km
Oppdatert: 16/12/2018 05:20
Overskyet
Overskyet
 Vind fra Ø
Vind: Ø 17 km/h
Temperatur: 1°C
Wind Chill: -3°C
Duggpunkt: 0°C
Fuktighet: 93%
Barometer: 1024 hPa
Clouds: Overskyet
Visibility: 10 km
Cloud details: Delvis skyet 610 m
Overskyet 1768 m
2018/12/16 04:20 ESIB 160420Z AUTO 10009KT 9999 SCT020/// OVC058/// 01/M00 Q1024